sensor_id;sensor_type;location;lat;lon;timestamp;pressure;altitude;pressure_sealevel;temperature
68745;BMP180;66104;45.456;11.064;2023-05-10T00:02:07;100321.60;;;17.40
68745;BMP180;66104;45.456;11.064;2023-05-10T00:04:45;100316.60;;;17.40
68745;BMP180;66104;45.456;11.064;2023-05-10T00:07:22;100312.80;;;17.30
68745;BMP180;66104;45.456;11.064;2023-05-10T00:10:01;100318.60;;;17.30
68745;BMP180;66104;45.456;11.064;2023-05-10T00:12:38;100309.40;;;17.20
68745;BMP180;66104;45.456;11.064;2023-05-10T00:15:16;100311.40;;;17.20
68745;BMP180;66104;45.456;11.064;2023-05-10T00:17:54;100320.60;;;17.10
68745;BMP180;66104;45.456;11.064;2023-05-10T00:20:32;100318.20;;;17.10
68745;BMP180;66104;45.456;11.064;2023-05-10T00:23:10;100309.80;;;17.10
68745;BMP180;66104;45.456;11.064;2023-05-10T00:25:47;100313.80;;;17.10
68745;BMP180;66104;45.456;11.064;2023-05-10T00:28:25;100302.80;;;17.02
68745;BMP180;66104;45.456;11.064;2023-05-10T00:31:04;100308.20;;;17.00
68745;BMP180;66104;45.456;11.064;2023-05-10T00:33:42;100313.40;;;17.00
68745;BMP180;66104;45.456;11.064;2023-05-10T00:36:19;100301.00;;;17.00
68745;BMP180;66104;45.456;11.064;2023-05-10T00:38:57;100306.20;;;17.00
68745;BMP180;66104;45.456;11.064;2023-05-10T00:41:34;100306.20;;;16.90
68745;BMP180;66104;45.456;11.064;2023-05-10T00:44:11;100308.80;;;16.90
68745;BMP180;66104;45.456;11.064;2023-05-10T00:46:49;100291.60;;;16.80
68745;BMP180;66104;45.456;11.064;2023-05-10T00:49:27;100294.00;;;16.80
68745;BMP180;66104;45.456;11.064;2023-05-10T00:52:05;100287.60;;;16.70
68745;BMP180;66104;45.456;11.064;2023-05-10T00:54:43;100286.40;;;16.70
68745;BMP180;66104;45.456;11.064;2023-05-10T00:57:20;100292.20;;;16.66
68745;BMP180;66104;45.456;11.064;2023-05-10T00:59:58;100269.80;;;16.60
68745;BMP180;66104;45.456;11.064;2023-05-10T01:02:39;100267.80;;;16.52
68745;BMP180;66104;45.456;11.064;2023-05-10T01:05:16;100258.80;;;16.50
68745;BMP180;66104;45.456;11.064;2023-05-10T01:07:53;100275.60;;;16.50
68745;BMP180;66104;45.456;11.064;2023-05-10T01:10:31;100268.20;;;16.40
68745;BMP180;66104;45.456;11.064;2023-05-10T01:13:09;100269.00;;;16.40
68745;BMP180;66104;45.456;11.064;2023-05-10T01:15:48;100264.60;;;16.30
68745;BMP180;66104;45.456;11.064;2023-05-10T01:18:26;100274.40;;;16.30
68745;BMP180;66104;45.456;11.064;2023-05-10T01:21:22;100255.80;;;16.20
68745;BMP180;66104;45.456;11.064;2023-05-10T01:24:38;100260.00;;;16.20
68745;BMP180;66104;45.456;11.064;2023-05-10T01:31:21;100249.40;;;16.16
68745;BMP180;66104;45.456;11.064;2023-05-10T01:34:09;100252.80;;;16.10
68745;BMP180;66104;45.456;11.064;2023-05-10T01:36:59;100249.00;;;16.10
68745;BMP180;66104;45.456;11.064;2023-05-10T01:39:49;100250.40;;;16.10
68745;BMP180;66104;45.456;11.064;2023-05-10T01:42:35;100257.00;;;16.02
68745;BMP180;66104;45.456;11.064;2023-05-10T01:45:23;100257.80;;;16.00
68745;BMP180;66104;45.456;11.064;2023-05-10T01:48:11;100244.40;;;16.00
68745;BMP180;66104;45.456;11.064;2023-05-10T01:50:50;100239.60;;;15.90
68745;BMP180;66104;45.456;11.064;2023-05-10T01:53:28;100248.80;;;15.90
68745;BMP180;66104;45.456;11.064;2023-05-10T01:56:06;100250.40;;;15.80
68745;BMP180;66104;45.456;11.064;2023-05-10T01:58:50;100246.60;;;15.80
68745;BMP180;66104;45.456;11.064;2023-05-10T02:01:29;100236.80;;;15.70
68745;BMP180;66104;45.456;11.064;2023-05-10T02:04:08;100243.40;;;15.70
68745;BMP180;66104;45.456;11.064;2023-05-10T02:06:47;100240.60;;;15.70
68745;BMP180;66104;45.456;11.064;2023-05-10T02:09:27;100240.80;;;15.70
68745;BMP180;66104;45.456;11.064;2023-05-10T02:12:08;100239.80;;;15.66
68745;BMP180;66104;45.456;11.064;2023-05-10T02:14:47;100252.20;;;15.60
68745;BMP180;66104;45.456;11.064;2023-05-10T02:17:27;100250.00;;;15.60
68745;BMP180;66104;45.456;11.064;2023-05-10T02:20:08;100259.60;;;15.60
68745;BMP180;66104;45.456;11.064;2023-05-10T02:22:49;100261.20;;;15.60
68745;BMP180;66104;45.456;11.064;2023-05-10T02:25:27;100264.20;;;15.50
68745;BMP180;66104;45.456;11.064;2023-05-10T02:28:09;100258.20;;;15.50
68745;BMP180;66104;45.456;11.064;2023-05-10T02:30:49;100260.40;;;15.50
68745;BMP180;66104;45.456;11.064;2023-05-10T02:33:29;100260.80;;;15.50
68745;BMP180;66104;45.456;11.064;2023-05-10T02:36:13;100257.80;;;15.40
68745;BMP180;66104;45.456;11.064;2023-05-10T02:38:53;100258.00;;;15.50
68745;BMP180;66104;45.456;11.064;2023-05-10T02:41:32;100257.00;;;15.50
68745;BMP180;66104;45.456;11.064;2023-05-10T02:44:11;100263.80;;;15.50
68745;BMP180;66104;45.456;11.064;2023-05-10T02:46:50;100255.40;;;15.40
68745;BMP180;66104;45.456;11.064;2023-05-10T02:49:28;100255.80;;;15.40
68745;BMP180;66104;45.456;11.064;2023-05-10T02:52:07;100257.20;;;15.38
68745;BMP180;66104;45.456;11.064;2023-05-10T02:54:46;100255.40;;;15.40
68745;BMP180;66104;45.456;11.064;2023-05-10T02:57:31;100263.20;;;15.30
68745;BMP180;66104;45.456;11.064;2023-05-10T03:00:14;100254.60;;;15.30
68745;BMP180;66104;45.456;11.064;2023-05-10T03:02:53;100252.80;;;15.30
68745;BMP180;66104;45.456;11.064;2023-05-10T03:05:32;100258.00;;;15.40
68745;BMP180;66104;45.456;11.064;2023-05-10T03:08:10;100256.40;;;15.38
68745;BMP180;66104;45.456;11.064;2023-05-10T03:14:13;100254.80;;;15.30
68745;BMP180;66104;45.456;11.064;2023-05-10T03:17:04;100261.80;;;15.30
68745;BMP180;66104;45.456;11.064;2023-05-10T03:19:51;100260.00;;;15.20
68745;BMP180;66104;45.456;11.064;2023-05-10T03:22:37;100256.00;;;15.10
68745;BMP180;66104;45.456;11.064;2023-05-10T03:25:17;100246.80;;;15.06
68745;BMP180;66104;45.456;11.064;2023-05-10T03:27:54;100249.80;;;15.00
68745;BMP180;66104;45.456;11.064;2023-05-10T03:30:34;100250.40;;;14.90
68745;BMP180;66104;45.456;11.064;2023-05-10T03:33:12;100240.40;;;14.90
68745;BMP180;66104;45.456;11.064;2023-05-10T03:35:52;100248.40;;;14.86
68745;BMP180;66104;45.456;11.064;2023-05-10T03:38:30;100247.60;;;14.80
68745;BMP180;66104;45.456;11.064;2023-05-10T03:41:09;100248.40;;;14.80
68745;BMP180;66104;45.456;11.064;2023-05-10T03:43:47;100249.60;;;14.80
68745;BMP180;66104;45.456;11.064;2023-05-10T03:46:25;100243.80;;;14.70
68745;BMP180;66104;45.456;11.064;2023-05-10T03:49:03;100240.00;;;14.70
68745;BMP180;66104;45.456;11.064;2023-05-10T03:51:43;100236.20;;;14.60
68745;BMP180;66104;45.456;11.064;2023-05-10T03:54:19;100229.60;;;14.60
68745;BMP180;66104;45.456;11.064;2023-05-10T03:56:58;100231.80;;;14.60
68745;BMP180;66104;45.456;11.064;2023-05-10T03:59:37;100228.00;;;14.50
68745;BMP180;66104;45.456;11.064;2023-05-10T04:02:14;100229.00;;;14.52
68745;BMP180;66104;45.456;11.064;2023-05-10T04:04:52;100237.60;;;14.60
68745;BMP180;66104;45.456;11.064;2023-05-10T04:07:29;100237.20;;;14.60
68745;BMP180;66104;45.456;11.064;2023-05-10T04:10:09;100241.00;;;14.60
68745;BMP180;66104;45.456;11.064;2023-05-10T04:12:45;100242.00;;;14.60
68745;BMP180;66104;45.456;11.064;2023-05-10T04:15:24;100239.40;;;14.60
68745;BMP180;66104;45.456;11.064;2023-05-10T04:18:04;100243.00;;;14.50
68745;BMP180;66104;45.456;11.064;2023-05-10T04:20:42;100240.40;;;14.50
68745;BMP180;66104;45.456;11.064;2023-05-10T04:23:20;100236.20;;;14.50
68745;BMP180;66104;45.456;11.064;2023-05-10T04:26:04;100236.80;;;14.50
68745;BMP180;66104;45.456;11.064;2023-05-10T04:28:41;100234.60;;;14.50
68745;BMP180;66104;45.456;11.064;2023-05-10T04:31:18;100229.20;;;14.50
68745;BMP180;66104;45.456;11.064;2023-05-10T04:33:56;100230.40;;;14.50
68745;BMP180;66104;45.456;11.064;2023-05-10T04:36:33;100227.40;;;14.48
68745;BMP180;66104;45.456;11.064;2023-05-10T04:39:11;100230.40;;;14.40
68745;BMP180;66104;45.456;11.064;2023-05-10T04:41:48;100230.60;;;14.40
68745;BMP180;66104;45.456;11.064;2023-05-10T04:44:26;100234.60;;;14.40
68745;BMP180;66104;45.456;11.064;2023-05-10T04:47:03;100234.00;;;14.42
68745;BMP180;66104;45.456;11.064;2023-05-10T04:49:42;100233.40;;;14.40
68745;BMP180;66104;45.456;11.064;2023-05-10T04:52:20;100232.80;;;14.40
68745;BMP180;66104;45.456;11.064;2023-05-10T04:54:58;100241.80;;;14.30
68745;BMP180;66104;45.456;11.064;2023-05-10T04:57:36;100236.20;;;14.30
68745;BMP180;66104;45.456;11.064;2023-05-10T05:00:19;100238.40;;;14.30
68745;BMP180;66104;45.456;11.064;2023-05-10T05:02:57;100241.00;;;14.30
68745;BMP180;66104;45.456;11.064;2023-05-10T05:05:35;100243.00;;;14.22
68745;BMP180;66104;45.456;11.064;2023-05-10T05:08:12;100248.20;;;14.20
68745;BMP180;66104;45.456;11.064;2023-05-10T05:10:49;100249.20;;;14.18
68745;BMP180;66104;45.456;11.064;2023-05-10T05:13:28;100248.00;;;14.10
68745;BMP180;66104;45.456;11.064;2023-05-10T05:16:09;100250.40;;;14.10
68745;BMP180;66104;45.456;11.064;2023-05-10T05:18:46;100248.40;;;14.10
68745;BMP180;66104;45.456;11.064;2023-05-10T05:21:24;100249.60;;;14.10
68745;BMP180;66104;45.456;11.064;2023-05-10T05:24:02;100245.60;;;14.10
68745;BMP180;66104;45.456;11.064;2023-05-10T05:26:40;100253.40;;;14.10
68745;BMP180;66104;45.456;11.064;2023-05-10T05:29:18;100257.20;;;14.10
68745;BMP180;66104;45.456;11.064;2023-05-10T05:31:56;100250.20;;;14.06
68745;BMP180;66104;45.456;11.064;2023-05-10T05:34:33;100250.80;;;14.00
68745;BMP180;66104;45.456;11.064;2023-05-10T05:37:15;100252.80;;;14.00
68745;BMP180;66104;45.456;11.064;2023-05-10T05:39:51;100263.00;;;14.00
68745;BMP180;66104;45.456;11.064;2023-05-10T05:42:29;100251.20;;;13.90
68745;BMP180;66104;45.456;11.064;2023-05-10T05:45:10;100251.80;;;13.90
68745;BMP180;66104;45.456;11.064;2023-05-10T05:47:49;100250.80;;;13.90
68745;BMP180;66104;45.456;11.064;2023-05-10T05:50:26;100261.00;;;13.80
68745;BMP180;66104;45.456;11.064;2023-05-10T05:53:05;100256.40;;;13.80
68745;BMP180;66104;45.456;11.064;2023-05-10T05:55:52;100263.00;;;13.80
68745;BMP180;66104;45.456;11.064;2023-05-10T05:58:30;100262.60;;;13.80
68745;BMP180;66104;45.456;11.064;2023-05-10T06:01:08;100261.40;;;13.80
68745;BMP180;66104;45.456;11.064;2023-05-10T06:03:46;100266.20;;;13.80
68745;BMP180;66104;45.456;11.064;2023-05-10T06:06:26;100257.40;;;13.80
68745;BMP180;66104;45.456;11.064;2023-05-10T06:09:04;100258.00;;;13.80
68745;BMP180;66104;45.456;11.064;2023-05-10T06:11:43;100260.20;;;13.80
68745;BMP180;66104;45.456;11.064;2023-05-10T06:14:22;100256.40;;;13.80
68745;BMP180;66104;45.456;11.064;2023-05-10T06:17:00;100263.00;;;13.80
68745;BMP180;66104;45.456;11.064;2023-05-10T06:19:39;100259.80;;;13.90
68745;BMP180;66104;45.456;11.064;2023-05-10T06:22:16;100261.40;;;13.90
68745;BMP180;66104;45.456;11.064;2023-05-10T06:24:53;100269.80;;;13.90
68745;BMP180;66104;45.456;11.064;2023-05-10T06:27:31;100266.80;;;13.90
68745;BMP180;66104;45.456;11.064;2023-05-10T06:30:15;100268.40;;;14.00
68745;BMP180;66104;45.456;11.064;2023-05-10T06:32:53;100262.00;;;14.06
68745;BMP180;66104;45.456;11.064;2023-05-10T06:35:32;100267.80;;;14.00
68745;BMP180;66104;45.456;11.064;2023-05-10T06:38:09;100269.40;;;14.00
68745;BMP180;66104;45.456;11.064;2023-05-10T06:40:47;100266.40;;;13.90
68745;BMP180;66104;45.456;11.064;2023-05-10T06:43:24;100265.80;;;13.90
68745;BMP180;66104;45.456;11.064;2023-05-10T06:46:03;100265.40;;;13.90
68745;BMP180;66104;45.456;11.064;2023-05-10T06:48:40;100269.20;;;13.80
68745;BMP180;66104;45.456;11.064;2023-05-10T06:51:19;100268.20;;;13.76
68745;BMP180;66104;45.456;11.064;2023-05-10T06:53:57;100263.00;;;13.70
68745;BMP180;66104;45.456;11.064;2023-05-10T06:56:34;100266.40;;;13.60
68745;BMP180;66104;45.456;11.064;2023-05-10T06:59:12;100258.40;;;13.60
68745;BMP180;66104;45.456;11.064;2023-05-10T07:01:52;100260.40;;;13.60
68745;BMP180;66104;45.456;11.064;2023-05-10T07:04:29;100260.40;;;13.60
68745;BMP180;66104;45.456;11.064;2023-05-10T07:07:07;100260.60;;;13.70
68745;BMP180;66104;45.456;11.064;2023-05-10T07:09:45;100263.40;;;13.60
68745;BMP180;66104;45.456;11.064;2023-05-10T07:12:22;100265.00;;;13.60
68745;BMP180;66104;45.456;11.064;2023-05-10T07:15:00;100266.80;;;13.60
68745;BMP180;66104;45.456;11.064;2023-05-10T07:17:37;100269.40;;;13.70
68745;BMP180;66104;45.456;11.064;2023-05-10T07:20:20;100270.40;;;13.70
68745;BMP180;66104;45.456;11.064;2023-05-10T07:22:59;100269.40;;;13.80
68745;BMP180;66104;45.456;11.064;2023-05-10T07:25:37;100270.60;;;13.80
68745;BMP180;66104;45.456;11.064;2023-05-10T07:28:15;100276.40;;;13.70
68745;BMP180;66104;45.456;11.064;2023-05-10T07:30:53;100274.00;;;13.60
68745;BMP180;66104;45.456;11.064;2023-05-10T07:33:30;100274.40;;;13.60
68745;BMP180;66104;45.456;11.064;2023-05-10T07:36:09;100270.60;;;13.50
68745;BMP180;66104;45.456;11.064;2023-05-10T07:38:46;100274.20;;;13.50
68745;BMP180;66104;45.456;11.064;2023-05-10T07:41:23;100276.80;;;13.40
68745;BMP180;66104;45.456;11.064;2023-05-10T07:44:00;100281.80;;;13.40
68745;BMP180;66104;45.456;11.064;2023-05-10T07:46:37;100284.60;;;13.40
68745;BMP180;66104;45.456;11.064;2023-05-10T07:49:15;100286.20;;;13.38
68745;BMP180;66104;45.456;11.064;2023-05-10T07:51:51;100286.20;;;13.36
68745;BMP180;66104;45.456;11.064;2023-05-10T07:54:29;100289.80;;;13.40
68745;BMP180;66104;45.456;11.064;2023-05-10T07:57:07;100292.40;;;13.40
68745;BMP180;66104;45.456;11.064;2023-05-10T07:59:44;100289.20;;;13.40
68745;BMP180;66104;45.456;11.064;2023-05-10T08:02:22;100299.20;;;13.40
68745;BMP180;66104;45.456;11.064;2023-05-10T08:04:59;100301.40;;;13.40
68745;BMP180;66104;45.456;11.064;2023-05-10T08:07:38;100302.20;;;13.30
68745;BMP180;66104;45.456;11.064;2023-05-10T08:10:16;100306.00;;;13.30
68745;BMP180;66104;45.456;11.064;2023-05-10T08:12:54;100302.80;;;13.30
68745;BMP180;66104;45.456;11.064;2023-05-10T08:15:32;100309.80;;;13.30
68745;BMP180;66104;45.456;11.064;2023-05-10T08:18:09;100309.20;;;13.40
68745;BMP180;66104;45.456;11.064;2023-05-10T08:20:47;100315.60;;;13.40
68745;BMP180;66104;45.456;11.064;2023-05-10T08:23:25;100310.80;;;13.40
68745;BMP180;66104;45.456;11.064;2023-05-10T08:26:02;100307.60;;;13.50
68745;BMP180;66104;45.456;11.064;2023-05-10T08:28:58;100317.40;;;13.60
68745;BMP180;66104;45.456;11.064;2023-05-10T08:31:36;100312.80;;;13.60
68745;BMP180;66104;45.456;11.064;2023-05-10T08:34:14;100313.40;;;13.70
68745;BMP180;66104;45.456;11.064;2023-05-10T08:36:51;100316.80;;;13.80
68745;BMP180;66104;45.456;11.064;2023-05-10T08:39:27;100318.40;;;13.80
68745;BMP180;66104;45.456;11.064;2023-05-10T08:42:08;100311.00;;;13.90
68745;BMP180;66104;45.456;11.064;2023-05-10T08:44:45;100320.60;;;13.90
68745;BMP180;66104;45.456;11.064;2023-05-10T08:47:27;100320.20;;;14.00
68745;BMP180;66104;45.456;11.064;2023-05-10T08:50:06;100320.80;;;14.10
68745;BMP180;66104;45.456;11.064;2023-05-10T08:52:47;100316.80;;;14.10
68745;BMP180;66104;45.456;11.064;2023-05-10T08:55:25;100321.00;;;14.20
68745;BMP180;66104;45.456;11.064;2023-05-10T08:58:19;100318.40;;;14.20
68745;BMP180;66104;45.456;11.064;2023-05-10T09:00:58;100322.60;;;14.20
68745;BMP180;66104;45.456;11.064;2023-05-10T09:03:35;100326.60;;;14.20
68745;BMP180;66104;45.456;11.064;2023-05-10T09:06:13;100326.00;;;14.20
68745;BMP180;66104;45.456;11.064;2023-05-10T09:08:51;100334.20;;;14.20
68745;BMP180;66104;45.456;11.064;2023-05-10T09:11:28;100327.40;;;14.18
68745;BMP180;66104;45.456;11.064;2023-05-10T09:14:06;100328.80;;;14.10
68745;BMP180;66104;45.456;11.064;2023-05-10T09:16:42;100332.60;;;14.10
68745;BMP180;66104;45.456;11.064;2023-05-10T09:19:19;100320.20;;;14.00
68745;BMP180;66104;45.456;11.064;2023-05-10T09:21:58;100318.00;;;14.06
68745;BMP180;66104;45.456;11.064;2023-05-10T09:24:36;100315.80;;;14.10
68745;BMP180;66104;45.456;11.064;2023-05-10T09:27:16;100314.20;;;14.10
68745;BMP180;66104;45.456;11.064;2023-05-10T09:29:53;100304.40;;;14.10
68745;BMP180;66104;45.456;11.064;2023-05-10T09:32:42;100307.00;;;14.10
68745;BMP180;66104;45.456;11.064;2023-05-10T09:35:22;100310.80;;;14.10
68745;BMP180;66104;45.456;11.064;2023-05-10T09:38:05;100310.60;;;14.20
68745;BMP180;66104;45.456;11.064;2023-05-10T09:40:41;100309.80;;;14.20
68745;BMP180;66104;45.456;11.064;2023-05-10T09:43:28;100305.00;;;14.20
68745;BMP180;66104;45.456;11.064;2023-05-10T09:46:13;100307.20;;;14.10
68745;BMP180;66104;45.456;11.064;2023-05-10T09:48:50;100303.80;;;14.10
68745;BMP180;66104;45.456;11.064;2023-05-10T09:51:28;100308.80;;;14.12
68745;BMP180;66104;45.456;11.064;2023-05-10T09:54:16;100299.80;;;14.10
68745;BMP180;66104;45.456;11.064;2023-05-10T09:56:52;100305.40;;;14.10
68745;BMP180;66104;45.456;11.064;2023-05-10T09:59:32;100302.60;;;14.10
68745;BMP180;66104;45.456;11.064;2023-05-10T10:02:10;100301.60;;;14.20
68745;BMP180;66104;45.456;11.064;2023-05-10T10:04:47;100302.00;;;14.30
68745;BMP180;66104;45.456;11.064;2023-05-10T10:07:29;100296.60;;;14.38
68745;BMP180;66104;45.456;11.064;2023-05-10T10:10:09;100288.60;;;14.40
68745;BMP180;66104;45.456;11.064;2023-05-10T10:12:48;100293.20;;;14.50
68745;BMP180;66104;45.456;11.064;2023-05-10T10:15:26;100288.20;;;14.50
68745;BMP180;66104;45.456;11.064;2023-05-10T10:18:03;100282.20;;;14.50
68745;BMP180;66104;45.456;11.064;2023-05-10T10:20:42;100284.80;;;14.60
68745;BMP180;66104;45.456;11.064;2023-05-10T10:23:19;100285.80;;;14.70
68745;BMP180;66104;45.456;11.064;2023-05-10T10:25:58;100284.60;;;14.80
68745;BMP180;66104;45.456;11.064;2023-05-10T10:28:47;100285.60;;;14.80
68745;BMP180;66104;45.456;11.064;2023-05-10T10:31:39;100287.60;;;14.84
68745;BMP180;66104;45.456;11.064;2023-05-10T10:34:27;100283.40;;;14.90
68745;BMP180;66104;45.456;11.064;2023-05-10T10:37:08;100288.00;;;14.90
68745;BMP180;66104;45.456;11.064;2023-05-10T10:39:46;100280.40;;;15.00
68745;BMP180;66104;45.456;11.064;2023-05-10T10:42:49;100282.60;;;15.00
68745;BMP180;66104;45.456;11.064;2023-05-10T10:45:26;100278.60;;;15.00
68745;BMP180;66104;45.456;11.064;2023-05-10T10:48:26;100280.80;;;15.00
68745;BMP180;66104;45.456;11.064;2023-05-10T10:51:03;100280.20;;;15.00
68745;BMP180;66104;45.456;11.064;2023-05-10T10:53:43;100279.60;;;15.00
68745;BMP180;66104;45.456;11.064;2023-05-10T10:56:25;100272.20;;;15.00
68745;BMP180;66104;45.456;11.064;2023-05-10T10:59:04;100269.00;;;14.90
68745;BMP180;66104;45.456;11.064;2023-05-10T11:01:46;100274.60;;;14.86
68745;BMP180;66104;45.456;11.064;2023-05-10T11:04:29;100271.80;;;14.70
68745;BMP180;66104;45.456;11.064;2023-05-10T11:07:23;100270.20;;;14.60
68745;BMP180;66104;45.456;11.064;2023-05-10T11:10:06;100264.40;;;14.50
68745;BMP180;66104;45.456;11.064;2023-05-10T11:13:00;100257.60;;;14.50
68745;BMP180;66104;45.456;11.064;2023-05-10T11:15:39;100258.00;;;14.44
68745;BMP180;66104;45.456;11.064;2023-05-10T11:18:29;100260.20;;;14.40
68745;BMP180;66104;45.456;11.064;2023-05-10T11:21:08;100254.60;;;14.30
68745;BMP180;66104;45.456;11.064;2023-05-10T11:23:57;100262.40;;;14.28
68745;BMP180;66104;45.456;11.064;2023-05-10T11:26:37;100261.00;;;14.20
68745;BMP180;66104;45.456;11.064;2023-05-10T11:29:15;100260.00;;;14.20
68745;BMP180;66104;45.456;11.064;2023-05-10T11:31:52;100254.80;;;14.10
68745;BMP180;66104;45.456;11.064;2023-05-10T11:34:30;100251.80;;;14.10
68745;BMP180;66104;45.456;11.064;2023-05-10T11:37:08;100252.40;;;14.10
68745;BMP180;66104;45.456;11.064;2023-05-10T11:39:50;100262.00;;;14.10
68745;BMP180;66104;45.456;11.064;2023-05-10T11:42:27;100253.00;;;14.10
68745;BMP180;66104;45.456;11.064;2023-05-10T11:45:06;100254.80;;;14.10
68745;BMP180;66104;45.456;11.064;2023-05-10T11:47:46;100257.80;;;14.18
68745;BMP180;66104;45.456;11.064;2023-05-10T11:50:25;100264.80;;;14.20
68745;BMP180;66104;45.456;11.064;2023-05-10T11:53:03;100262.80;;;14.30
68745;BMP180;66104;45.456;11.064;2023-05-10T11:55:40;100266.80;;;14.38
68745;BMP180;66104;45.456;11.064;2023-05-10T11:58:27;100265.20;;;14.40
68745;BMP180;66104;45.456;11.064;2023-05-10T12:01:06;100269.60;;;14.44
68745;BMP180;66104;45.456;11.064;2023-05-10T12:03:45;100269.80;;;14.50
68745;BMP180;66104;45.456;11.064;2023-05-10T12:06:22;100270.00;;;14.52
68745;BMP180;66104;45.456;11.064;2023-05-10T12:09:01;100271.80;;;14.60
68745;BMP180;66104;45.456;11.064;2023-05-10T12:11:44;100275.20;;;14.70
68745;BMP180;66104;45.456;11.064;2023-05-10T12:14:23;100267.60;;;14.70
68745;BMP180;66104;45.456;11.064;2023-05-10T12:17:01;100265.60;;;14.80
68745;BMP180;66104;45.456;11.064;2023-05-10T12:19:42;100271.20;;;14.80
68745;BMP180;66104;45.456;11.064;2023-05-10T12:22:22;100269.60;;;14.88
68745;BMP180;66104;45.456;11.064;2023-05-10T12:25:00;100269.60;;;14.90
68745;BMP180;66104;45.456;11.064;2023-05-10T12:27:38;100266.40;;;14.90
68745;BMP180;66104;45.456;11.064;2023-05-10T12:30:24;100270.20;;;14.98
68745;BMP180;66104;45.456;11.064;2023-05-10T12:33:09;100272.00;;;15.00
68745;BMP180;66104;45.456;11.064;2023-05-10T12:35:53;100271.80;;;15.00
68745;BMP180;66104;45.456;11.064;2023-05-10T12:38:37;100278.40;;;15.00
68745;BMP180;66104;45.456;11.064;2023-05-10T12:41:17;100280.60;;;15.10
68745;BMP180;66104;45.456;11.064;2023-05-10T12:43:54;100274.40;;;15.10
68745;BMP180;66104;45.456;11.064;2023-05-10T12:46:30;100277.00;;;15.10
68745;BMP180;66104;45.456;11.064;2023-05-10T12:49:07;100279.00;;;15.10
68745;BMP180;66104;45.456;11.064;2023-05-10T12:51:44;100280.80;;;15.10
68745;BMP180;66104;45.456;11.064;2023-05-10T12:54:22;100281.00;;;15.10
68745;BMP180;66104;45.456;11.064;2023-05-10T12:56:59;100288.20;;;15.12
68745;BMP180;66104;45.456;11.064;2023-05-10T12:59:37;100285.60;;;15.20
68745;BMP180;66104;45.456;11.064;2023-05-10T13:02:13;100284.20;;;15.20
68745;BMP180;66104;45.456;11.064;2023-05-10T13:04:52;100278.40;;;15.20
68745;BMP180;66104;45.456;11.064;2023-05-10T13:07:29;100278.60;;;15.20
68745;BMP180;66104;45.456;11.064;2023-05-10T13:10:09;100276.40;;;15.30
68745;BMP180;66104;45.456;11.064;2023-05-10T13:12:45;100276.40;;;15.30
68745;BMP180;66104;45.456;11.064;2023-05-10T13:15:22;100277.60;;;15.30
68745;BMP180;66104;45.456;11.064;2023-05-10T13:17:58;100272.80;;;15.32
68745;BMP180;66104;45.456;11.064;2023-05-10T13:20:34;100265.60;;;15.34
68745;BMP180;66104;45.456;11.064;2023-05-10T13:23:12;100269.20;;;15.40
68745;BMP180;66104;45.456;11.064;2023-05-10T13:25:49;100266.00;;;15.40
68745;BMP180;66104;45.456;11.064;2023-05-10T13:28:26;100264.40;;;15.40
68745;BMP180;66104;45.456;11.064;2023-05-10T13:31:04;100259.40;;;15.40
68745;BMP180;66104;45.456;11.064;2023-05-10T13:33:40;100255.00;;;15.40
68745;BMP180;66104;45.456;11.064;2023-05-10T13:36:18;100259.20;;;15.40
68745;BMP180;66104;45.456;11.064;2023-05-10T13:38:55;100261.40;;;15.30
68745;BMP180;66104;45.456;11.064;2023-05-10T13:41:33;100263.80;;;15.38
68745;BMP180;66104;45.456;11.064;2023-05-10T13:44:15;100257.80;;;15.40
68745;BMP180;66104;45.456;11.064;2023-05-10T13:46:55;100253.80;;;15.40
68745;BMP180;66104;45.456;11.064;2023-05-10T13:49:32;100255.00;;;15.40
68745;BMP180;66104;45.456;11.064;2023-05-10T13:52:09;100252.80;;;15.40
68745;BMP180;66104;45.456;11.064;2023-05-10T13:54:46;100256.00;;;15.40
68745;BMP180;66104;45.456;11.064;2023-05-10T13:57:23;100249.40;;;15.50
68745;BMP180;66104;45.456;11.064;2023-05-10T14:00:01;100247.80;;;15.50
68745;BMP180;66104;45.456;11.064;2023-05-10T14:02:40;100250.60;;;15.50
68745;BMP180;66104;45.456;11.064;2023-05-10T14:05:18;100247.60;;;15.52
68745;BMP180;66104;45.456;11.064;2023-05-10T14:07:59;100244.00;;;15.60
68745;BMP180;66104;45.456;11.064;2023-05-10T14:10:38;100242.80;;;15.60
68745;BMP180;66104;45.456;11.064;2023-05-10T14:13:15;100237.00;;;15.60
68745;BMP180;66104;45.456;11.064;2023-05-10T14:15:52;100236.40;;;15.60
68745;BMP180;66104;45.456;11.064;2023-05-10T14:18:28;100231.80;;;15.60
68745;BMP180;66104;45.456;11.064;2023-05-10T14:21:06;100229.00;;;15.60
68745;BMP180;66104;45.456;11.064;2023-05-10T14:23:45;100225.40;;;15.60
68745;BMP180;66104;45.456;11.064;2023-05-10T14:26:23;100222.40;;;15.70
68745;BMP180;66104;45.456;11.064;2023-05-10T14:29:00;100216.60;;;15.70
68745;BMP180;66104;45.456;11.064;2023-05-10T14:31:53;100220.80;;;15.70
68745;BMP180;66104;45.456;11.064;2023-05-10T14:34:42;100216.20;;;15.60
68745;BMP180;66104;45.456;11.064;2023-05-10T14:37:19;100215.80;;;15.60
68745;BMP180;66104;45.456;11.064;2023-05-10T14:40:00;100213.80;;;15.60
68745;BMP180;66104;45.456;11.064;2023-05-10T14:42:38;100211.80;;;15.60
68745;BMP180;66104;45.456;11.064;2023-05-10T14:45:17;100211.60;;;15.60
68745;BMP180;66104;45.456;11.064;2023-05-10T14:47:54;100209.80;;;15.50
68745;BMP180;66104;45.456;11.064;2023-05-10T14:50:31;100203.20;;;15.40
68745;BMP180;66104;45.456;11.064;2023-05-10T14:53:10;100205.60;;;15.30
68745;BMP180;66104;45.456;11.064;2023-05-10T14:55:48;100208.60;;;15.30
68745;BMP180;66104;45.456;11.064;2023-05-10T14:58:25;100203.80;;;15.20
68745;BMP180;66104;45.456;11.064;2023-05-10T15:01:01;100200.40;;;15.18